Time;durP1;ratioP1;P1;durP2;ratioP2;P2;SDS_P1;SDS_P2;PMS_P1;PMS_P2;Temp;Humidity;BMP_temperature;BMP_pressure;BME280_temperature;BME280_humidity;BME280_pressure;Samples;Min_cycle;Max_cycle;Signal;HPM_P1;HPM_P2
2022/02/20 00:00:24;;;;;;;29.48;7.78;;;;;;;;;;4970363;28;20054;-65
2022/02/20 00:02:54;;;;;;;33.42;8.25;;;;;;;;;;4970183;28;20055;-65
2022/02/20 00:05:24;;;;;;;25.05;8.15;;;;;;;;;;4970705;28;20086;-65
2022/02/20 00:07:55;;;;;;;22.25;7.93;;;;;;;;;;4970256;28;20180;-65
2022/02/20 00:10:25;;;;;;;31.92;7.55;;;;;;;;;;4912600;29;20067;-65
2022/02/20 00:12:57;;;;;;;28.85;8.50;;;;;;;;;;4928237;29;20513;-65
2022/02/20 00:15:27;;;;;;;26.13;8.10;;;;;;;;;;4928294;29;20505;-66
2022/02/20 00:17:58;;;;;;;22.80;8.18;;;;;;;;;;4912858;29;20056;-65
2022/02/20 00:20:31;;;;;;;14.60;7.95;;;;;;;;;;4912722;29;20060;-65
2022/02/20 00:23:04;;;;;;;22.10;8.05;;;;;;;;;;4931432;29;20048;-65
2022/02/20 00:25:36;;;;;;;28.42;8.35;;;;;;;;;;4931687;29;20068;-65
2022/02/20 00:28:06;;;;;;;20.83;8.07;;;;;;;;;;4931274;29;20405;-65
2022/02/20 00:30:37;;;;;;;20.63;7.95;;;;;;;;;;4933611;29;20401;-65
2022/02/20 00:33:07;;;;;;;21.73;8.07;;;;;;;;;;4934741;29;20062;-65
2022/02/20 00:35:39;;;;;;;;;;;;;;;;;;4953499;28;20048;-65
2022/02/20 00:38:11;;;;;;;19.40;8.00;;;;;;;;;;4969724;28;20362;-65
2022/02/20 00:40:41;;;;;;;17.05;8.43;;;;;;;;;;4970048;28;20054;-65
2022/02/20 00:43:14;;;;;;;18.33;8.25;;;;;;;;;;4953629;28;20054;-65
2022/02/20 00:45:45;;;;;;;18.75;8.45;;;;;;;;;;4922947;28;20161;-65
2022/02/20 00:48:20;;;;;;;18.65;8.55;;;;;;;;;;4954157;28;20062;-65
2022/02/20 00:50:52;;;;;;;23.17;8.32;;;;;;;;;;4954649;28;20526;-65
2022/02/20 00:53:23;;;;;;;16.92;8.18;;;;;;;;;;4937490;28;20056;-65
2022/02/20 00:55:53;;;;;;;20.00;8.88;;;;;;;;;;4931116;29;20442;-65
2022/02/20 00:58:23;;;;;;;20.17;8.82;;;;;;;;;;4931274;29;20071;-65
2022/02/20 01:00:54;;;;;;;20.13;8.70;;;;;;;;;;4961484;28;20158;-65
2022/02/20 01:03:24;;;;;;;22.48;9.07;;;;;;;;;;4937744;28;20055;-65
2022/02/20 01:05:56;;;;;;;21.08;8.75;;;;;;;;;;4958615;28;20519;-65
2022/02/20 01:08:26;;;;;;;23.45;8.43;;;;;;;;;;4950234;29;20070;-65
2022/02/20 01:10:56;;;;;;;23.50;8.95;;;;;;;;;;4950593;29;20047;-65
2022/02/20 01:13:26;;;;;;;21.50;9.30;;;;;;;;;;4950392;29;20408;-65
2022/02/20 01:15:57;;;;;;;22.65;8.85;;;;;;;;;;4950257;29;20103;-65
2022/02/20 01:18:28;;;;;;;22.63;9.10;;;;;;;;;;4930717;29;20078;-65
2022/02/20 01:20:58;;;;;;;17.35;9.20;;;;;;;;;;4931173;29;20059;-65
2022/02/20 01:23:28;;;;;;;19.13;9.30;;;;;;;;;;4931033;29;20553;-65
2022/02/20 01:25:59;;;;;;;21.52;9.00;;;;;;;;;;4931092;29;20087;-65
2022/02/20 01:28:29;;;;;;;18.13;8.73;;;;;;;;;;4931255;29;20047;-65
2022/02/20 01:30:59;;;;;;;20.45;8.75;;;;;;;;;;4931035;29;20063;-66
2022/02/20 01:33:29;;;;;;;18.30;8.93;;;;;;;;;;4916440;29;20068;-65
2022/02/20 01:36:05;;;;;;;24.10;8.70;;;;;;;;;;4911915;29;20390;-65
2022/02/20 01:38:36;;;;;;;22.95;9.40;;;;;;;;;;4940835;29;20062;-65
2022/02/20 01:41:06;;;;;;;21.60;9.00;;;;;;;;;;4950067;29;20067;-65
2022/02/20 01:43:37;;;;;;;22.88;9.25;;;;;;;;;;4911574;29;20063;-65
2022/02/20 01:46:08;;;;;;;24.80;9.85;;;;;;;;;;4911664;29;20055;-65
2022/02/20 01:48:38;;;;;;;25.58;9.75;;;;;;;;;;4881297;29;20076;-65
2022/02/20 01:51:08;;;;;;;27.35;9.70;;;;;;;;;;4914912;29;20063;-65
2022/02/20 01:53:40;;;;;;;17.58;9.32;;;;;;;;;;4876556;29;20503;-65
2022/02/20 01:56:12;;;;;;;22.13;9.38;;;;;;;;;;4896046;29;20429;-65
2022/02/20 01:59:02;;;;;;;17.85;8.95;;;;;;;;;;4896265;29;20060;-65
2022/02/20 02:01:53;;;;;;;19.67;9.75;;;;;;;;;;4896845;29;20053;-66
2022/02/20 02:04:35;;;;;;;25.38;9.15;;;;;;;;;;4881715;29;20421;-65
2022/02/20 02:07:10;;;;;;;19.33;9.90;;;;;;;;;;4896050;29;20068;-65
2022/02/20 02:10:07;;;;;;;17.40;8.95;;;;;;;;;;4877739;29;20514;-65
2022/02/20 02:12:55;;;;;;;17.95;8.88;;;;;;;;;;4877720;29;20053;-65
2022/02/20 02:15:50;;;;;;;22.67;9.48;;;;;;;;;;4871568;29;20105;-65
2022/02/20 02:18:42;;;;;;;18.67;8.65;;;;;;;;;;4884526;29;20054;-65
2022/02/20 02:21:41;;;;;;;19.88;9.63;;;;;;;;;;4896162;29;20045;-65
2022/02/20 02:24:34;;;;;;;21.48;9.10;;;;;;;;;;4843121;29;20451;-65
2022/02/20 02:27:17;;;;;;;18.45;10.05;;;;;;;;;;4826377;29;20121;-65
2022/02/20 02:30:11;;;;;;;21.33;9.02;;;;;;;;;;4840712;29;20653;-65
2022/02/20 02:32:41;;;;;;;24.77;9.82;;;;;;;;;;4854597;29;20061;-65
2022/02/20 02:35:12;;;;;;;26.20;9.75;;;;;;;;;;4821552;29;20400;-65
2022/02/20 02:37:43;;;;;;;18.33;9.55;;;;;;;;;;4839109;29;20068;-65
2022/02/20 02:40:14;;;;;;;19.30;9.25;;;;;;;;;;4839741;29;20062;-65
2022/02/20 02:42:44;;;;;;;20.15;8.52;;;;;;;;;;4823829;29;20074;-65
2022/02/20 02:45:14;;;;;;;19.88;8.80;;;;;;;;;;4839755;29;20069;-65
2022/02/20 02:47:47;;;;;;;19.65;9.00;;;;;;;;;;4839251;29;20054;-65
2022/02/20 02:50:18;;;;;;;20.08;9.32;;;;;;;;;;4821066;29;20054;-65
2022/02/20 02:52:52;;;;;;;19.67;8.73;;;;;;;;;;4817072;29;20060;-65
2022/02/20 02:55:23;;;;;;;19.50;9.10;;;;;;;;;;4807786;29;20048;-65
2022/02/20 02:57:53;;;;;;;16.90;8.75;;;;;;;;;;4790460;29;20058;-65
2022/02/20 03:00:24;;;;;;;19.83;9.10;;;;;;;;;;4802652;29;20055;-65
2022/02/20 03:02:54;;;;;;;20.30;9.27;;;;;;;;;;4837992;29;20049;-65
2022/02/20 03:05:24;;;;;;;21.90;9.52;;;;;;;;;;4840905;29;20064;-66
2022/02/20 03:07:55;;;;;;;21.95;10.25;;;;;;;;;;4857514;29;20064;-65
2022/02/20 03:10:26;;;;;;;21.15;9.50;;;;;;;;;;4847938;29;20479;-65
2022/02/20 03:12:57;;;;;;;19.70;9.55;;;;;;;;;;4857395;29;20053;-65
2022/02/20 03:15:27;;;;;;;20.67;9.63;;;;;;;;;;4826900;29;20057;-65
2022/02/20 03:17:58;;;;;;;22.48;9.73;;;;;;;;;;4875851;29;20049;-65
2022/02/20 03:20:30;;;;;;;17.17;9.32;;;;;;;;;;4857394;29;20095;-65
2022/02/20 03:23:00;;;;;;;20.08;9.63;;;;;;;;;;4826837;29;20057;-65
2022/02/20 03:25:35;;;;;;;22.48;9.35;;;;;;;;;;4867306;29;20060;-65
2022/02/20 03:28:13;;;;;;;20.25;9.65;;;;;;;;;;4864644;29;20053;-65
2022/02/20 03:30:50;;;;;;;21.73;10.27;;;;;;;;;;4830622;29;20059;-65
2022/02/20 03:33:21;;;;;;;21.65;9.13;;;;;;;;;;4780449;29;20074;-66
2022/02/20 03:35:55;;;;;;;16.75;9.30;;;;;;;;;;4825364;29;20551;-66
2022/02/20 03:38:26;;;;;;;26.65;9.65;;;;;;;;;;4838466;29;20460;-66
2022/02/20 03:40:57;;;;;;;20.10;8.93;;;;;;;;;;4838367;29;20058;-66
2022/02/20 03:43:34;;;;;;;20.10;8.50;;;;;;;;;;4795625;29;20076;-65
2022/02/20 03:46:05;;;;;;;19.75;9.98;;;;;;;;;;4824076;29;20050;-66
2022/02/20 03:48:55;;;;;;;20.17;9.65;;;;;;;;;;4823081;29;20075;-66
2022/02/20 03:51:58;;;;;;;22.65;9.80;;;;;;;;;;4838924;29;20057;-66
2022/02/20 03:54:40;;;;;;;25.55;10.65;;;;;;;;;;4803785;29;20055;-66
2022/02/20 03:57:10;;;;;;;26.00;9.80;;;;;;;;;;4820448;29;20062;-66
2022/02/20 04:00:22;;;;;;;25.38;9.57;;;;;;;;;;4802281;29;20172;-66
2022/02/20 04:03:22;;;;;;;18.63;9.65;;;;;;;;;;4765791;30;20052;-66
2022/02/20 04:05:58;;;;;;;22.35;9.90;;;;;;;;;;4783784;29;20055;-66
2022/02/20 04:08:28;;;;;;;23.35;9.38;;;;;;;;;;4774932;29;20060;-66
2022/02/20 04:11:05;;;;;;;21.45;9.70;;;;;;;;;;4779065;29;20050;-66
2022/02/20 04:14:02;;;;;;;27.60;8.98;;;;;;;;;;4778147;29;20063;-66
2022/02/20 04:16:44;;;;;;;22.70;9.68;;;;;;;;;;4783614;29;20063;-66
2022/02/20 04:19:15;;;;;;;20.55;9.85;;;;;;;;;;4780031;29;20063;-66
2022/02/20 04:21:47;;;;;;;20.15;9.15;;;;;;;;;;4765877;30;20060;-66
2022/02/20 04:24:24;;;;;;;15.75;9.82;;;;;;;;;;4801437;29;20783;-66
2022/02/20 04:26:57;;;;;;;20.30;9.32;;;;;;;;;;4798449;29;20051;-65
2022/02/20 04:29:39;;;;;;;23.58;9.05;;;;;;;;;;4801485;29;20054;-66
2022/02/20 04:32:10;;;;;;;20.80;9.45;;;;;;;;;;4793460;29;20051;-66
2022/02/20 04:34:42;;;;;;;19.33;9.27;;;;;;;;;;4791240;29;20055;-66
2022/02/20 04:37:14;;;;;;;20.58;9.07;;;;;;;;;;4820891;29;20074;-66
2022/02/20 04:39:46;;;;;;;23.88;9.38;;;;;;;;;;4837609;29;20062;-66
2022/02/20 04:42:17;;;;;;;23.02;9.57;;;;;;;;;;4815973;29;20102;-66
2022/02/20 04:45:10;;;;;;;26.38;9.70;;;;;;;;;;4783415;29;20080;-66
2022/02/20 04:47:43;;;;;;;22.20;9.27;;;;;;;;;;4783162;29;20076;-66
2022/02/20 04:50:18;;;;;;;22.80;9.10;;;;;;;;;;4783295;29;20059;-66
2022/02/20 04:52:57;;;;;;;22.17;9.35;;;;;;;;;;4813492;29;20055;-66
2022/02/20 04:55:31;;;;;;;20.85;9.88;;;;;;;;;;4766869;30;20063;-66
2022/02/20 04:58:01;;;;;;;22.00;9.13;;;;;;;;;;4748739;30;20071;-66
2022/02/20 05:00:31;;;;;;;17.83;9.75;;;;;;;;;;4735166;30;20065;-66
2022/02/20 05:03:22;;;;;;;16.88;9.20;;;;;;;;;;4777664;30;20674;-66
2022/02/20 05:06:17;;;;;;;22.90;8.95;;;;;;;;;;4801214;29;20062;-66
2022/02/20 05:08:50;;;;;;;23.60;9.43;;;;;;;;;;4783336;30;20056;-65
2022/02/20 05:11:43;;;;;;;27.23;10.02;;;;;;;;;;4774937;29;20067;-66
2022/02/20 05:14:13;;;;;;;19.15;9.32;;;;;;;;;;4772467;29;20062;-66
2022/02/20 05:16:48;;;;;;;15.82;9.23;;;;;;;;;;4815006;29;20054;-66
2022/02/20 05:19:33;;;;;;;18.95;9.27;;;;;;;;;;4769903;29;20055;-65
2022/02/20 05:22:04;;;;;;;20.05;9.30;;;;;;;;;;4783410;29;20062;-66
2022/02/20 05:24:44;;;;;;;;;;;;;;;;;;4808672;29;20054;-66
2022/02/20 05:27:15;;;;;;;17.90;8.50;;;;;;;;;;4838050;29;19924;-66
2022/02/20 05:29:47;;;;;;;;;;;;;;;;;;4811749;29;20066;-66
2022/02/20 05:32:23;;;;;;;17.67;8.93;;;;;;;;;;4793001;29;19932;-66
2022/02/20 05:35:08;;;;;;;21.25;9.35;;;;;;;;;;4822557;29;20066;-66
2022/02/20 05:37:44;;;;;;;19.00;9.45;;;;;;;;;;4811422;29;20059;-65
2022/02/20 05:40:19;;;;;;;18.55;8.93;;;;;;;;;;4786180;30;20167;-66
2022/02/20 05:43:10;;;;;;;22.83;9.77;;;;;;;;;;4786221;29;20089;-66
2022/02/20 05:45:40;;;;;;;18.15;8.93;;;;;;;;;;4801289;29;20559;-66
2022/02/20 05:48:19;;;;;;;22.63;9.02;;;;;;;;;;4799683;29;20169;-65
2022/02/20 05:51:16;;;;;;;20.55;9.90;;;;;;;;;;4835493;29;20061;-66
2022/02/20 05:54:07;;;;;;;25.10;9.95;;;;;;;;;;4827746;29;20062;-66
2022/02/20 05:56:37;;;;;;;20.40;8.98;;;;;;;;;;4789018;29;20104;-66
2022/02/20 05:59:08;;;;;;;21.55;9.52;;;;;;;;;;4858515;29;20073;-66
2022/02/20 06:01:38;;;;;;;26.00;9.18;;;;;;;;;;4862065;29;20057;-65
2022/02/20 06:04:14;;;;;;;22.38;9.63;;;;;;;;;;4877070;29;20057;-66
2022/02/20 06:06:51;;;;;;;18.50;9.32;;;;;;;;;;4877822;29;20078;-66
2022/02/20 06:09:34;;;;;;;23.90;9.60;;;;;;;;;;4873415;29;20064;-66
2022/02/20 06:12:13;;;;;;;23.27;9.90;;;;;;;;;;4825849;29;20050;-66
2022/02/20 06:14:50;;;;;;;26.83;9.50;;;;;;;;;;4811558;29;20076;-66
2022/02/20 06:17:31;;;;;;;22.17;9.50;;;;;;;;;;4821492;29;20050;-66
2022/02/20 06:20:28;;;;;;;19.15;9.20;;;;;;;;;;4805582;29;20063;-66
2022/02/20 06:23:16;;;;;;;18.48;9.43;;;;;;;;;;4778858;29;20062;-66
2022/02/20 06:26:10;;;;;;;24.83;9.68;;;;;;;;;;4785959;29;20059;-66
2022/02/20 06:28:40;;;;;;;28.40;9.65;;;;;;;;;;4791470;29;20055;-66
2022/02/20 06:31:15;;;;;;;23.90;10.27;;;;;;;;;;4785313;29;20079;-66
2022/02/20 06:33:47;;;;;;;21.70;11.15;;;;;;;;;;4800832;29;20095;-66
2022/02/20 06:36:18;;;;;;;22.55;9.80;;;;;;;;;;4797606;29;20074;-66
2022/02/20 06:38:49;;;;;;;18.48;10.60;;;;;;;;;;4785354;30;20059;-66
2022/02/20 06:41:19;;;;;;;18.25;8.98;;;;;;;;;;4802496;29;20068;-66
2022/02/20 06:43:54;;;;;;;19.50;9.93;;;;;;;;;;4846930;29;20049;-66
2022/02/20 06:46:31;;;;;;;20.85;9.68;;;;;;;;;;4872388;29;20064;-66
2022/02/20 06:49:08;;;;;;;18.00;9.02;;;;;;;;;;4882690;29;20061;-66
2022/02/20 06:51:52;;;;;;;26.08;9.52;;;;;;;;;;4857621;29;20062;-66
2022/02/20 06:54:40;;;;;;;17.85;9.35;;;;;;;;;;4858600;29;20431;-66
2022/02/20 06:57:35;;;;;;;27.67;9.68;;;;;;;;;;4841046;29;20057;-66
2022/02/20 07:00:10;;;;;;;14.50;9.02;;;;;;;;;;4857999;29;20061;-66
2022/02/20 07:02:41;;;;;;;20.67;9.73;;;;;;;;;;4823574;29;20054;-66
2022/02/20 07:05:11;;;;;;;19.02;8.93;;;;;;;;;;4838863;29;20054;-65
2022/02/20 07:07:42;;;;;;;21.50;8.95;;;;;;;;;;4821422;29;20071;-66
2022/02/20 07:10:12;;;;;;;26.77;9.70;;;;;;;;;;4821278;29;20070;-66
2022/02/20 07:12:42;;;;;;;20.45;9.73;;;;;;;;;;4839396;29;20058;-65
2022/02/20 07:15:13;;;;;;;20.15;9.32;;;;;;;;;;4839499;29;20152;-65
2022/02/20 07:17:43;;;;;;;22.83;9.70;;;;;;;;;;4839389;29;20101;-65
2022/02/20 07:20:13;;;;;;;19.90;9.82;;;;;;;;;;4857462;29;20061;-65
2022/02/20 07:22:44;;;;;;;23.83;10.75;;;;;;;;;;4853067;29;20061;-65
2022/02/20 07:25:14;;;;;;;34.08;11.23;;;;;;;;;;4857490;29;20722;-66
2022/02/20 07:27:45;;;;;;;22.42;10.23;;;;;;;;;;4857565;29;20069;-65
2022/02/20 07:30:16;;;;;;;21.95;9.88;;;;;;;;;;4857574;29;20073;-66
2022/02/20 07:32:46;;;;;;;20.27;9.55;;;;;;;;;;4826861;29;20072;-66
2022/02/20 07:35:17;;;;;;;19.38;9.25;;;;;;;;;;4923912;29;20078;-66
2022/02/20 07:37:47;;;;;;;17.38;8.60;;;;;;;;;;4951424;29;20092;-66
2022/02/20 07:40:17;;;;;;;20.55;10.38;;;;;;;;;;4935872;29;20127;-66
2022/02/20 07:42:48;;;;;;;25.23;10.30;;;;;;;;;;4935901;29;20563;-66
2022/02/20 07:45:23;;;;;;;22.42;9.52;;;;;;;;;;4919156;28;20088;-66
2022/02/20 07:47:57;;;;;;;17.42;9.45;;;;;;;;;;4918796;29;20048;-67
2022/02/20 07:50:38;;;;;;;20.67;9.93;;;;;;;;;;4920028;29;20621;-66
2022/02/20 07:53:09;;;;;;;24.75;9.60;;;;;;;;;;4935789;29;20805;-66
2022/02/20 07:55:40;;;;;;;22.83;9.88;;;;;;;;;;4919377;29;20537;-66
2022/02/20 07:58:12;;;;;;;22.85;9.75;;;;;;;;;;4951543;29;20055;-66
2022/02/20 08:00:42;;;;;;;23.00;9.80;;;;;;;;;;4956288;28;20049;-66
2022/02/20 08:03:13;;;;;;;24.48;9.57;;;;;;;;;;4955028;28;20066;-66
2022/02/20 08:05:43;;;;;;;25.63;9.98;;;;;;;;;;4970547;28;20077;-67
2022/02/20 08:08:14;;;;;;;19.25;9.65;;;;;;;;;;4970398;28;20458;-67
2022/02/20 08:10:44;;;;;;;25.05;9.73;;;;;;;;;;4970426;28;20429;-66
2022/02/20 08:13:14;;;;;;;28.50;9.82;;;;;;;;;;4970004;28;20074;-67
2022/02/20 08:15:45;;;;;;;28.55;10.50;;;;;;;;;;4970215;28;20051;-67
2022/02/20 08:18:15;;;;;;;22.02;9.27;;;;;;;;;;4922256;28;20055;-67
2022/02/20 08:20:45;;;;;;;26.42;10.30;;;;;;;;;;4922235;28;20055;-66
2022/02/20 08:23:36;;;;;;;18.45;9.55;;;;;;;;;;4970106;28;20061;-66
2022/02/20 08:26:07;;;;;;;19.40;9.45;;;;;;;;;;4950393;29;20551;-67
2022/02/20 08:28:38;;;;;;;20.20;9.70;;;;;;;;;;4915121;29;20059;-67
2022/02/20 08:31:09;;;;;;;21.10;9.98;;;;;;;;;;4912144;29;20059;-66
2022/02/20 08:33:40;;;;;;;25.80;10.00;;;;;;;;;;4893511;29;20053;-66
2022/02/20 08:36:17;;;;;;;26.58;10.13;;;;;;;;;;4893515;29;20068;-66
2022/02/20 08:38:48;;;;;;;20.77;10.30;;;;;;;;;;4887802;29;20057;-66
2022/02/20 08:41:18;;;;;;;21.77;10.85;;;;;;;;;;4862551;29;20071;-66
2022/02/20 08:43:49;;;;;;;19.73;10.07;;;;;;;;;;4893383;29;20064;-66
2022/02/20 08:46:19;;;;;;;21.15;10.45;;;;;;;;;;4862232;29;20048;-66
2022/02/20 08:48:49;;;;;;;22.25;11.35;;;;;;;;;;4893625;29;20064;-66
2022/02/20 08:51:20;;;;;;;18.98;10.13;;;;;;;;;;4893147;29;20457;-66
2022/02/20 08:53:50;;;;;;;16.20;9.13;;;;;;;;;;4874552;29;20089;-66
2022/02/20 08:56:26;;;;;;;20.80;10.18;;;;;;;;;;4874005;29;20053;-67
2022/02/20 08:58:59;;;;;;;20.35;11.00;;;;;;;;;;4877909;29;20068;-66
2022/02/20 09:01:29;;;;;;;20.63;10.05;;;;;;;;;;4878655;29;20064;-67
2022/02/20 09:04:03;;;;;;;18.63;10.15;;;;;;;;;;4871113;29;20049;-66
2022/02/20 09:06:35;;;;;;;24.88;11.20;;;;;;;;;;4878453;29;20425;-66
2022/02/20 09:09:05;;;;;;;27.38;10.40;;;;;;;;;;4874177;29;20588;-66
2022/02/20 09:11:37;;;;;;;20.95;10.60;;;;;;;;;;4885521;29;20057;-66
2022/02/20 09:14:08;;;;;;;19.90;10.65;;;;;;;;;;4878744;29;20064;-66
2022/02/20 09:16:38;;;;;;;18.90;10.77;;;;;;;;;;4878276;29;20053;-66
2022/02/20 09:19:08;;;;;;;27.33;11.65;;;;;;;;;;4896874;29;20161;-66
2022/02/20 09:21:38;;;;;;;21.30;10.98;;;;;;;;;;4886084;29;20061;-66
2022/02/20 09:24:09;;;;;;;21.42;11.95;;;;;;;;;;4878282;29;20060;-66
2022/02/20 09:26:40;;;;;;;25.23;11.18;;;;;;;;;;4893269;29;20061;-66
2022/02/20 09:29:10;;;;;;;21.88;10.55;;;;;;;;;;4888951;29;20053;-66
2022/02/20 09:31:41;;;;;;;20.52;10.50;;;;;;;;;;4907627;29;20052;-66
2022/02/20 09:34:12;;;;;;;21.55;10.80;;;;;;;;;;4880804;29;20052;-66
2022/02/20 09:36:43;;;;;;;22.60;11.57;;;;;;;;;;4880859;29;20055;-66
2022/02/20 09:39:13;;;;;;;26.38;11.40;;;;;;;;;;4865913;29;20053;-66
2022/02/20 09:41:43;;;;;;;19.15;10.52;;;;;;;;;;4901260;29;20055;-66
2022/02/20 09:44:14;;;;;;;18.55;10.55;;;;;;;;;;4934498;29;20060;-66
2022/02/20 09:46:46;;;;;;;20.58;10.60;;;;;;;;;;4934429;29;20060;-66
2022/02/20 09:49:16;;;;;;;21.08;11.02;;;;;;;;;;4880675;29;20052;-66
2022/02/20 09:51:46;;;;;;;23.77;11.35;;;;;;;;;;4915112;29;20079;-66
2022/02/20 09:54:17;;;;;;;21.10;9.77;;;;;;;;;;4915363;29;20060;-66
2022/02/20 09:56:48;;;;;;;22.90;11.05;;;;;;;;;;4934564;29;20072;-66
2022/02/20 09:59:18;;;;;;;18.13;10.48;;;;;;;;;;4891277;29;20059;-66
2022/02/20 10:02:05;;;;;;;20.23;9.85;;;;;;;;;;4953606;29;20078;-66
2022/02/20 10:04:56;;;;;;;23.35;10.52;;;;;;;;;;4953222;29;20055;-66
2022/02/20 10:07:30;;;;;;;17.08;10.70;;;;;;;;;;4906110;29;20047;-66
2022/02/20 10:10:12;;;;;;;22.15;10.60;;;;;;;;;;4936753;29;20063;-66
2022/02/20 10:12:43;;;;;;;19.45;9.52;;;;;;;;;;4906017;29;20059;-66
2022/02/20 10:15:28;;;;;;;21.80;11.40;;;;;;;;;;4953146;29;20063;-66
2022/02/20 10:18:21;;;;;;;27.20;10.90;;;;;;;;;;4953206;29;20039;-66
2022/02/20 10:21:10;;;;;;;25.65;11.60;;;;;;;;;;4952892;29;20072;-66
2022/02/20 10:24:12;;;;;;;19.85;10.52;;;;;;;;;;4914650;29;20059;-66
2022/02/20 10:27:08;;;;;;;26.40;10.30;;;;;;;;;;4894243;29;20052;-67
2022/02/20 10:30:11;;;;;;;22.20;10.80;;;;;;;;;;4934172;29;20063;-66
2022/02/20 10:32:44;;;;;;;20.40;10.13;;;;;;;;;;4933566;29;20420;-67
2022/02/20 10:35:16;;;;;;;19.08;10.20;;;;;;;;;;4917836;29;20464;-66
2022/02/20 10:37:46;;;;;;;18.83;10.25;;;;;;;;;;4871736;29;20059;-67
2022/02/20 10:40:26;;;;;;;23.70;10.35;;;;;;;;;;4902765;29;20059;-67
2022/02/20 10:43:00;;;;;;;23.02;10.75;;;;;;;;;;4933129;29;20048;-67
2022/02/20 10:45:36;;;;;;;19.63;10.07;;;;;;;;;;4933317;29;20412;-66
2022/02/20 10:48:18;;;;;;;18.83;10.05;;;;;;;;;;4933295;29;20658;-67
2022/02/20 10:50:58;;;;;;;27.45;9.93;;;;;;;;;;4933337;29;20056;-67
2022/02/20 10:53:33;;;;;;;22.73;9.88;;;;;;;;;;4886119;29;20056;-67
2022/02/20 10:56:03;;;;;;;27.35;11.02;;;;;;;;;;4933355;29;20066;-66
2022/02/20 10:58:41;;;;;;;21.88;9.50;;;;;;;;;;4933109;29;20056;-67
2022/02/20 11:01:25;;;;;;;17.60;10.15;;;;;;;;;;4964021;28;21084;-67
2022/02/20 11:04:13;;;;;;;23.98;9.90;;;;;;;;;;4991116;28;20046;-67
2022/02/20 11:06:47;;;;;;;20.20;10.07;;;;;;;;;;4990714;28;20058;-66
2022/02/20 11:09:17;;;;;;;17.05;9.63;;;;;;;;;;4990987;28;20058;-67
2022/02/20 11:11:51;;;;;;;20.02;10.23;;;;;;;;;;4990950;28;20050;-66
2022/02/20 11:14:22;;;;;;;18.23;9.73;;;;;;;;;;4942199;28;20047;-66
2022/02/20 11:16:54;;;;;;;20.90;9.65;;;;;;;;;;4958434;28;20094;-67
2022/02/20 11:19:27;;;;;;;16.73;9.55;;;;;;;;;;4974685;28;20415;-67
2022/02/20 11:22:02;;;;;;;20.98;9.23;;;;;;;;;;5012421;28;20053;-67
2022/02/20 11:24:34;;;;;;;19.13;9.85;;;;;;;;;;5012518;28;20046;-67
2022/02/20 11:27:06;;;;;;;16.65;9.95;;;;;;;;;;4995525;28;20042;-67
2022/02/20 11:29:36;;;;;;;17.63;10.02;;;;;;;;;;5012731;28;20045;-67
2022/02/20 11:32:08;;;;;;;20.75;9.32;;;;;;;;;;5012435;28;20046;-68
2022/02/20 11:34:45;;;;;;;13.02;7.93;;;;;;;;;;4963833;28;20061;-68
2022/02/20 11:37:15;;;;;;;12.40;6.95;;;;;;;;;;4970537;28;20416;-67
2022/02/20 11:40:03;;;;;;;11.82;6.63;;;;;;;;;;4939794;28;20059;-67
2022/02/20 11:42:40;;;;;;;13.43;6.90;;;;;;;;;;4970966;28;20070;-68
2022/02/20 11:45:11;;;;;;;9.93;5.95;;;;;;;;;;4970760;28;20046;-68
2022/02/20 11:47:45;;;;;;;10.95;5.93;;;;;;;;;;4938847;28;20059;-68
2022/02/20 11:50:16;;;;;;;9.18;5.40;;;;;;;;;;4970734;28;20047;-68
2022/02/20 11:52:49;;;;;;;10.15;5.88;;;;;;;;;;4954383;28;20534;-67
2022/02/20 11:55:23;;;;;;;11.05;5.40;;;;;;;;;;4954285;28;20058;-67
2022/02/20 11:58:13;;;;;;;9.18;5.43;;;;;;;;;;4970967;28;20059;-67
2022/02/20 12:01:04;;;;;;;11.73;5.88;;;;;;;;;;4938653;28;20511;-67
2022/02/20 12:03:46;;;;;;;13.55;5.70;;;;;;;;;;4970465;28;20074;-68
2022/02/20 12:06:18;;;;;;;8.70;5.07;;;;;;;;;;4970473;28;20507;-67
2022/02/20 12:08:51;;;;;;;10.70;5.30;;;;;;;;;;4997482;28;20058;-68
2022/02/20 12:11:25;;;;;;;10.57;5.45;;;;;;;;;;5011724;28;20042;-69
2022/02/20 12:14:01;;;;;;;10.30;5.72;;;;;;;;;;4930359;28;20053;-68
2022/02/20 12:16:34;;;;;;;19.30;5.90;;;;;;;;;;5011694;28;20398;-68
2022/02/20 12:19:41;;;;;;;10.43;5.45;;;;;;;;;;4977147;28;20054;-68
2022/02/20 12:22:25;;;;;;;10.27;5.85;;;;;;;;;;4976823;28;20406;-68
2022/02/20 12:24:59;;;;;;;11.10;5.72;;;;;;;;;;4977278;28;20046;-68
2022/02/20 12:27:37;;;;;;;9.68;5.60;;;;;;;;;;4992985;28;20054;-68
2022/02/20 12:30:13;;;;;;;8.50;5.38;;;;;;;;;;5011153;28;20053;-69
2022/02/20 12:32:49;;;;;;;9.95;5.40;;;;;;;;;;4960417;28;20505;-68
2022/02/20 12:35:22;;;;;;;7.95;5.70;;;;;;;;;;4969575;28;20051;-68
2022/02/20 12:37:55;;;;;;;10.38;5.60;;;;;;;;;;4970084;28;20066;-68
2022/02/20 12:40:27;;;;;;;9.00;5.95;;;;;;;;;;4970013;28;20066;-68
2022/02/20 12:43:12;;;;;;;10.68;5.65;;;;;;;;;;4969915;28;20039;-68
2022/02/20 12:45:44;;;;;;;8.57;5.40;;;;;;;;;;4899692;29;20048;-69
2022/02/20 12:48:16;;;;;;;10.23;5.65;;;;;;;;;;4931511;29;20059;-69
2022/02/20 12:50:50;;;;;;;9.52;5.53;;;;;;;;;;4915778;29;20063;-68
2022/02/20 12:53:20;;;;;;;11.23;6.18;;;;;;;;;;4931415;29;20081;-69
2022/02/20 12:55:52;;;;;;;8.98;5.40;;;;;;;;;;4931534;29;20059;-70
2022/02/20 12:58:24;;;;;;;14.38;6.07;;;;;;;;;;4912070;29;20056;-69
2022/02/20 13:00:56;;;;;;;12.63;6.60;;;;;;;;;;4912465;29;20123;-71
2022/02/20 13:03:27;;;;;;;9.05;5.68;;;;;;;;;;4912496;29;20060;-69
2022/02/20 13:05:58;;;;;;;10.40;5.85;;;;;;;;;;4865591;29;20060;-70
2022/02/20 13:08:29;;;;;;;9.73;5.82;;;;;;;;;;4912421;29;20060;-69
2022/02/20 13:11:01;;;;;;;10.70;5.70;;;;;;;;;;4912201;29;20096;-69
2022/02/20 13:13:33;;;;;;;9.82;6.07;;;;;;;;;;4940377;29;20055;-71
2022/02/20 13:16:13;;;;;;;12.43;6.43;;;;;;;;;;4893139;29;20068;-68
2022/02/20 13:18:44;;;;;;;14.50;6.45;;;;;;;;;;4859094;29;20057;-70
2022/02/20 13:21:17;;;;;;;11.90;5.38;;;;;;;;;;4874471;29;20060;-70
2022/02/20 13:23:51;;;;;;;10.20;5.88;;;;;;;;;;4885557;29;20067;-70
2022/02/20 13:26:27;;;;;;;9.38;6.25;;;;;;;;;;4912130;29;20060;-70
2022/02/20 13:29:00;;;;;;;8.48;5.78;;;;;;;;;;4901427;29;20055;-70
2022/02/20 13:31:40;;;;;;;10.48;6.38;;;;;;;;;;4884101;29;20070;-69
2022/02/20 13:34:15;;;;;;;11.02;6.55;;;;;;;;;;4911877;29;20056;-68
2022/02/20 13:36:46;;;;;;;11.27;6.60;;;;;;;;;;4892770;29;20433;-70
2022/02/20 13:39:19;;;;;;;10.55;6.50;;;;;;;;;;4816161;29;20053;-68
2022/02/20 13:41:52;;;;;;;11.65;6.20;;;;;;;;;;4877459;29;20517;-72
2022/02/20 13:44:38;;;;;;;8.82;6.47;;;;;;;;;;4893568;29;20059;-70
2022/02/20 13:47:11;;;;;;;9.07;5.72;;;;;;;;;;4896914;29;20416;-70
2022/02/20 13:49:49;;;;;;;15.52;6.07;;;;;;;;;;4911820;29;20484;-71
2022/02/20 13:52:29;;;;;;;10.13;6.13;;;;;;;;;;4881421;29;20059;-69
2022/02/20 13:55:06;;;;;;;11.82;6.05;;;;;;;;;;4897377;29;20056;-69
2022/02/20 13:57:36;;;;;;;14.27;6.00;;;;;;;;;;4934397;29;20062;-69
2022/02/20 14:00:11;;;;;;;10.50;6.53;;;;;;;;;;4934469;29;20573;-70
2022/02/20 14:02:44;;;;;;;10.32;6.53;;;;;;;;;;4934229;29;20082;-69
2022/02/20 14:05:28;;;;;;;12.27;6.35;;;;;;;;;;4904757;28;20058;-70
2022/02/20 14:08:05;;;;;;;17.67;6.65;;;;;;;;;;4972535;28;20082;-70
2022/02/20 14:10:57;;;;;;;11.57;6.43;;;;;;;;;;4956974;28;20051;-70
2022/02/20 14:13:37;;;;;;;11.88;7.32;;;;;;;;;;4946822;28;20055;-70
2022/02/20 14:16:10;;;;;;;12.63;6.53;;;;;;;;;;4965038;28;20054;-69
2022/02/20 14:18:46;;;;;;;10.68;6.45;;;;;;;;;;5014009;28;20046;-69
2022/02/20 14:21:23;;;;;;;8.80;6.55;;;;;;;;;;5013741;28;20049;-68
2022/02/20 14:23:54;;;;;;;9.63;6.80;;;;;;;;;;5013688;28;20050;-69
2022/02/20 14:26:26;;;;;;;10.05;6.72;;;;;;;;;;5013656;28;20548;-72
2022/02/20 14:28:59;;;;;;;11.18;6.63;;;;;;;;;;4995695;28;20065;-69
2022/02/20 14:31:29;;;;;;;11.48;7.03;;;;;;;;;;4979563;28;20501;-66
2022/02/20 14:34:01;;;;;;;11.30;7.35;;;;;;;;;;5013648;28;20042;-68
2022/02/20 14:36:35;;;;;;;11.88;7.00;;;;;;;;;;4978949;28;20064;-68
2022/02/20 14:39:07;;;;;;;10.23;7.05;;;;;;;;;;4995538;28;20058;-67
2022/02/20 14:41:38;;;;;;;10.52;7.95;;;;;;;;;;5013324;28;20042;-69
2022/02/20 14:44:08;;;;;;;11.35;8.00;;;;;;;;;;5013552;28;20458;-67
2022/02/20 14:46:39;;;;;;;12.68;7.50;;;;;;;;;;4971525;28;20058;-67
2022/02/20 14:49:12;;;;;;;13.23;8.35;;;;;;;;;;4971930;28;20155;-67
2022/02/20 14:51:42;;;;;;;11.60;8.65;;;;;;;;;;4923725;28;20057;-68
2022/02/20 14:54:15;;;;;;;12.77;8.95;;;;;;;;;;4967791;28;20047;-68
2022/02/20 14:56:47;;;;;;;13.05;8.13;;;;;;;;;;4897730;29;20521;-71
2022/02/20 14:59:18;;;;;;;13.82;8.68;;;;;;;;;;4882858;29;20063;-72
2022/02/20 15:01:50;;;;;;;13.23;8.93;;;;;;;;;;4914146;29;20064;-70
2022/02/20 15:04:20;;;;;;;15.05;9.40;;;;;;;;;;4845467;29;20060;-73
2022/02/20 15:06:50;;;;;;;13.80;9.80;;;;;;;;;;4876064;29;20093;-69
2022/02/20 15:09:21;;;;;;;10.68;8.05;;;;;;;;;;4876974;29;20065;-70
2022/02/20 15:11:52;;;;;;;17.75;10.02;;;;;;;;;;4876183;29;20057;-69
2022/02/20 15:14:22;;;;;;;14.25;9.65;;;;;;;;;;4876530;29;20098;-69